createdAt,value
2022-11-29T00:13:53.908Z,96.88
2022-11-29T00:29:37.012Z,96.85
2022-11-29T00:45:20.035Z,96.95
2022-11-29T01:01:02.310Z,96.51
2022-11-29T01:16:45.128Z,96.44
2022-11-29T01:32:28.172Z,96.22
2022-11-29T01:48:10.829Z,96.14
2022-11-29T02:03:53.771Z,96.14
2022-11-29T02:19:36.226Z,96.24
2022-11-29T02:35:18.775Z,96.24
2022-11-29T02:51:01.688Z,96.08
2022-11-29T03:06:43.921Z,96.07
2022-11-29T03:22:26.910Z,95.88
2022-11-29T03:38:09.402Z,96
2022-11-29T03:53:51.896Z,96.61
2022-11-29T04:09:34.401Z,97.02
2022-11-29T04:25:17.248Z,97.09
2022-11-29T04:40:59.534Z,97.11
2022-11-29T04:56:42.149Z,97.1
2022-11-29T05:12:24.362Z,97.19
2022-11-29T05:28:07.037Z,97.5
2022-11-29T05:43:49.309Z,97.52
2022-11-29T05:59:31.856Z,97.41
2022-11-29T06:15:14.208Z,97.17
2022-11-29T06:30:57.200Z,97.33
2022-11-29T06:46:40.046Z,97.16
2022-11-29T07:02:22.543Z,97.19
2022-11-29T07:18:04.826Z,97.25
2022-11-29T07:33:47.951Z,97.29
2022-11-29T07:49:30.752Z,96.37
2022-11-29T08:05:13.755Z,95.68
2022-11-29T08:20:56.408Z,95.57
2022-11-29T08:36:39.484Z,92.59
2022-11-29T08:52:22.267Z,91.75
2022-11-29T09:08:04.499Z,90.09
2022-11-29T09:23:47.147Z,87.83
2022-11-29T09:39:29.853Z,87.39
2022-11-29T09:55:12.219Z,87.06
2022-11-29T10:10:55.082Z,86.2
2022-11-29T10:26:37.236Z,86.06
2022-11-29T10:42:19.816Z,85.29
2022-11-29T10:58:02.605Z,84.92
2022-11-29T11:13:44.707Z,85.56
2022-11-29T11:29:27.137Z,85.08
2022-11-29T11:45:09.471Z,84.33
2022-11-29T12:00:52.177Z,83.71
2022-11-29T12:16:35.250Z,83.99
2022-11-29T12:32:17.745Z,83.97
2022-11-29T12:48:00.270Z,84.47
2022-11-29T13:03:43.423Z,84.44
2022-11-29T13:19:25.954Z,85.07
2022-11-29T13:35:08.647Z,85.6
2022-11-29T13:50:51.464Z,86.54
2022-11-29T14:06:34.032Z,87.07
2022-11-29T14:22:17.003Z,87.8
2022-11-29T14:37:59.830Z,88.45
2022-11-29T14:53:42.802Z,89.05
2022-11-29T15:09:25.700Z,89.45
2022-11-29T15:25:08.070Z,89.67
2022-11-29T15:40:51.194Z,90.25
2022-11-29T15:56:33.450Z,90.57
2022-11-29T16:12:15.617Z,91.23
2022-11-29T16:27:58.620Z,92.36
2022-11-29T16:43:41.583Z,93.14
2022-11-29T16:59:24.435Z,93.09
2022-11-29T17:00:11.843Z,93.21
2022-11-29T17:15:54.584Z,92.75
2022-11-29T17:31:37.188Z,92.41
2022-11-29T17:47:19.767Z,92.14
2022-11-29T18:03:02.213Z,91.94
2022-11-29T18:18:44.720Z,91.78
2022-11-29T18:34:27.105Z,91.69
2022-11-29T18:50:09.743Z,91.78
2022-11-29T19:05:52.623Z,92.05
2022-11-29T19:21:35.584Z,92.22
2022-11-29T19:37:18.009Z,92.29
2022-11-29T19:53:00.220Z,92.55
2022-11-29T20:08:42.702Z,92.73
2022-11-29T20:24:24.916Z,92.88
2022-11-29T20:40:07.539Z,93
2022-11-29T20:55:50.622Z,93.12
2022-11-29T21:11:33.488Z,93.25
2022-11-29T21:27:15.995Z,93.21
2022-11-29T21:42:58.471Z,93.03
2022-11-29T21:58:40.920Z,93.25
2022-11-29T22:14:23.660Z,92.96
2022-11-29T22:30:06.350Z,92.76
2022-11-29T22:45:48.715Z,92.78
2022-11-29T23:01:31.799Z,92.77
2022-11-29T23:17:14.783Z,92.52
2022-11-29T23:32:57.245Z,92.44
2022-11-29T23:48:39.545Z,92.34
